sensor_id;sensor_type;location;lat;lon;timestamp;pressure;altitude;pressure_sealevel;temperature;humidity
68871;BME280;55906;52.278;6.808;2024-01-11T00:02:06;103208.13;;;-2.33;60.85
68871;BME280;55906;52.278;6.808;2024-01-11T00:04:33;103208.13;;;-2.33;60.61
68871;BME280;55906;52.278;6.808;2024-01-11T00:06:59;103199.13;;;-2.37;61.39
68871;BME280;55906;52.278;6.808;2024-01-11T00:09:26;103194.34;;;-2.41;61.19
68871;BME280;55906;52.278;6.808;2024-01-11T00:11:52;103192.13;;;-2.38;60.52
68871;BME280;55906;52.278;6.808;2024-01-11T00:14:19;103202.66;;;-2.43;60.78
68871;BME280;55906;52.278;6.808;2024-01-11T00:16:46;103202.66;;;-2.43;60.48
68871;BME280;55906;52.278;6.808;2024-01-11T00:19:14;103201.56;;;-2.45;60.86
68871;BME280;55906;52.278;6.808;2024-01-11T00:21:40;103201.56;;;-2.45;61.51
68871;BME280;55906;52.278;6.808;2024-01-11T00:24:07;103199.38;;;-2.49;60.95
68871;BME280;55906;52.278;6.808;2024-01-11T00:26:34;103204.16;;;-2.52;61.50
68871;BME280;55906;52.278;6.808;2024-01-11T00:29:02;103202.34;;;-2.53;60.77
68871;BME280;55906;52.278;6.808;2024-01-11T00:31:28;103201.97;;;-2.56;62.65
68871;BME280;55906;52.278;6.808;2024-01-11T00:33:55;103197.56;;;-2.58;62.47
68871;BME280;55906;52.278;6.808;2024-01-11T00:36:23;103189.09;;;-2.64;61.47
68871;BME280;55906;52.278;6.808;2024-01-11T00:38:50;103199.22;;;-2.58;61.94
68871;BME280;55906;52.278;6.808;2024-01-11T00:41:17;103197.75;;;-2.56;62.53
68871;BME280;55906;52.278;6.808;2024-01-11T00:43:43;103195.72;;;-2.66;61.38
68871;BME280;55906;52.278;6.808;2024-01-11T00:46:10;103200.16;;;-2.72;62.25
68871;BME280;55906;52.278;6.808;2024-01-11T00:48:37;103203.28;;;-2.67;62.48
68871;BME280;55906;52.278;6.808;2024-01-11T00:51:04;103200.91;;;-2.73;61.98
68871;BME280;55906;52.278;6.808;2024-01-11T00:53:33;103208.81;;;-2.71;62.86
68871;BME280;55906;52.278;6.808;2024-01-11T00:55:59;103207.91;;;-2.79;62.30
68871;BME280;55906;52.278;6.808;2024-01-11T00:58:26;103211.22;;;-2.80;63.46
68871;BME280;55906;52.278;6.808;2024-01-11T01:00:53;103218.22;;;-2.79;63.27
68871;BME280;55906;52.278;6.808;2024-01-11T01:03:20;103222.66;;;-2.85;64.16
68871;BME280;55906;52.278;6.808;2024-01-11T01:05:47;103217.50;;;-2.85;63.01
68871;BME280;55906;52.278;6.808;2024-01-11T01:08:14;103216.75;;;-2.84;64.00
68871;BME280;55906;52.278;6.808;2024-01-11T01:10:42;103218.59;;;-2.83;62.99
68871;BME280;55906;52.278;6.808;2024-01-11T01:13:09;103220.09;;;-2.85;63.23
68871;BME280;55906;52.278;6.808;2024-01-11T01:15:35;103224.50;;;-2.84;63.17
68871;BME280;55906;52.278;6.808;2024-01-11T01:18:02;103216.97;;;-2.90;63.89
68871;BME280;55906;52.278;6.808;2024-01-11T01:20:30;103226.88;;;-2.85;63.52
68871;BME280;55906;52.278;6.808;2024-01-11T01:22:56;103224.13;;;-2.87;64.67
68871;BME280;55906;52.278;6.808;2024-01-11T01:25:23;103228.53;;;-2.86;63.99
68871;BME280;55906;52.278;6.808;2024-01-11T01:27:51;103227.81;;;-2.92;64.28
68871;BME280;55906;52.278;6.808;2024-01-11T01:30:18;103227.63;;;-2.86;63.12
68871;BME280;55906;52.278;6.808;2024-01-11T01:32:44;103227.28;;;-2.90;63.82
68871;BME280;55906;52.278;6.808;2024-01-11T01:35:11;103226.34;;;-2.90;64.18
68871;BME280;55906;52.278;6.808;2024-01-11T01:37:38;103229.31;;;-2.94;64.21
68871;BME280;55906;52.278;6.808;2024-01-11T01:40:05;103230.78;;;-2.96;64.53
68871;BME280;55906;52.278;6.808;2024-01-11T01:42:32;103224.53;;;-2.98;64.58
68871;BME280;55906;52.278;6.808;2024-01-11T01:45:00;103232.97;;;-2.92;65.20
68871;BME280;55906;52.278;6.808;2024-01-11T01:47:28;103233.19;;;-2.98;64.44
68871;BME280;55906;52.278;6.808;2024-01-11T01:49:55;103241.25;;;-2.95;64.70
68871;BME280;55906;52.278;6.808;2024-01-11T01:52:22;103231.88;;;-2.94;63.72
68871;BME280;55906;52.278;6.808;2024-01-11T01:54:50;103227.09;;;-2.98;65.17
68871;BME280;55906;52.278;6.808;2024-01-11T01:57:18;103231.69;;;-2.96;65.30
68871;BME280;55906;52.278;6.808;2024-01-11T01:59:49;103232.78;;;-2.94;65.22
68871;BME280;55906;52.278;6.808;2024-01-11T02:02:19;103234.28;;;-2.96;64.81
68871;BME280;55906;52.278;6.808;2024-01-11T02:04:46;103231.53;;;-2.97;66.17
68871;BME280;55906;52.278;6.808;2024-01-11T02:07:13;103227.28;;;-2.97;64.94
68871;BME280;55906;52.278;6.808;2024-01-11T02:09:42;103223.78;;;-2.97;65.70
68871;BME280;55906;52.278;6.808;2024-01-11T02:12:10;103217.38;;;-3.01;65.26
68871;BME280;55906;52.278;6.808;2024-01-11T02:14:38;103218.84;;;-3.03;64.91
68871;BME280;55906;52.278;6.808;2024-01-11T02:17:05;103210.03;;;-3.05;65.41
68871;BME280;55906;52.278;6.808;2024-01-11T02:19:33;103212.59;;;-3.05;66.10
68871;BME280;55906;52.278;6.808;2024-01-11T02:22:05;103210.59;;;-3.07;65.25
68871;BME280;55906;52.278;6.808;2024-01-11T02:24:35;103232.28;;;-3.05;65.95
68871;BME280;55906;52.278;6.808;2024-01-11T02:27:04;103231.91;;;-3.08;65.71
68871;BME280;55906;52.278;6.808;2024-01-11T02:29:31;103229.34;;;-3.08;65.74
68871;BME280;55906;52.278;6.808;2024-01-11T02:31:59;103232.66;;;-3.09;65.15
68871;BME280;55906;52.278;6.808;2024-01-11T02:34:27;103223.81;;;-3.11;66.19
68871;BME280;55906;52.278;6.808;2024-01-11T02:36:54;103220.72;;;-3.16;66.61
68871;BME280;55906;52.278;6.808;2024-01-11T02:39:23;103207.66;;;-3.10;66.06
68871;BME280;55906;52.278;6.808;2024-01-11T02:41:53;103211.31;;;-3.08;67.02
68871;BME280;55906;52.278;6.808;2024-01-11T02:44:19;103215.00;;;-3.06;66.17
68871;BME280;55906;52.278;6.808;2024-01-11T02:46:46;103215.91;;;-3.06;65.95
68871;BME280;55906;52.278;6.808;2024-01-11T02:49:13;103219.25;;;-3.14;65.67
68871;BME280;55906;52.278;6.808;2024-01-11T02:51:39;103234.50;;;-3.15;65.65
68871;BME280;55906;52.278;6.808;2024-01-11T02:54:06;103244.06;;;-3.22;65.89
68871;BME280;55906;52.278;6.808;2024-01-11T02:56:33;103234.88;;;-3.27;66.58
68871;BME280;55906;52.278;6.808;2024-01-11T02:59:01;103233.59;;;-3.23;66.86
68871;BME280;55906;52.278;6.808;2024-01-11T03:01:27;103235.97;;;-3.25;66.51
68871;BME280;55906;52.278;6.808;2024-01-11T03:03:54;103239.09;;;-3.27;66.72
68871;BME280;55906;52.278;6.808;2024-01-11T03:06:21;103225.31;;;-3.28;66.74
68871;BME280;55906;52.278;6.808;2024-01-11T03:08:48;103233.03;;;-3.28;67.69
68871;BME280;55906;52.278;6.808;2024-01-11T03:11:15;103235.63;;;-3.35;67.25
68871;BME280;55906;52.278;6.808;2024-01-11T03:13:42;103247.56;;;-3.28;66.07
68871;BME280;55906;52.278;6.808;2024-01-11T03:16:10;103247.56;;;-3.28;67.76
68871;BME280;55906;52.278;6.808;2024-01-11T03:18:36;103235.06;;;-3.32;66.97
68871;BME280;55906;52.278;6.808;2024-01-11T03:21:03;103241.50;;;-3.36;67.74
68871;BME280;55906;52.278;6.808;2024-01-11T03:23:30;103253.44;;;-3.36;67.55
68871;BME280;55906;52.278;6.808;2024-01-11T03:25:57;103236.19;;;-3.37;67.40
68871;BME280;55906;52.278;6.808;2024-01-11T03:28:23;103223.69;;;-3.41;67.63
68871;BME280;55906;52.278;6.808;2024-01-11T03:30:50;103255.47;;;-3.41;68.16
68871;BME280;55906;52.278;6.808;2024-01-11T03:33:18;103257.50;;;-3.38;68.29
68871;BME280;55906;52.278;6.808;2024-01-11T03:35:45;103252.72;;;-3.42;68.66
68871;BME280;55906;52.278;6.808;2024-01-11T03:38:12;103254.56;;;-3.41;68.13
68871;BME280;55906;52.278;6.808;2024-01-11T03:40:38;103241.50;;;-3.43;68.14
68871;BME280;55906;52.278;6.808;2024-01-11T03:43:05;103257.50;;;-3.38;68.86
68871;BME280;55906;52.278;6.808;2024-01-11T03:45:32;103258.41;;;-3.38;68.88
68871;BME280;55906;52.278;6.808;2024-01-11T03:47:58;103267.41;;;-3.41;68.10
68871;BME280;55906;52.278;6.808;2024-01-11T03:50:26;103265.75;;;-3.41;68.57
68871;BME280;55906;52.278;6.808;2024-01-11T03:52:53;103252.91;;;-3.41;69.32
68871;BME280;55906;52.278;6.808;2024-01-11T03:55:20;103246.09;;;-3.40;68.01
68871;BME280;55906;52.278;6.808;2024-01-11T03:57:47;103267.59;;;-3.40;69.52
68871;BME280;55906;52.278;6.808;2024-01-11T04:00:14;103261.16;;;-3.43;68.38
68871;BME280;55906;52.278;6.808;2024-01-11T04:02:41;103263.19;;;-3.48;68.15
68871;BME280;55906;52.278;6.808;2024-01-11T04:05:08;103270.53;;;-3.51;68.57
68871;BME280;55906;52.278;6.808;2024-01-11T04:07:36;103277.91;;;-3.40;69.04
68871;BME280;55906;52.278;6.808;2024-01-11T04:10:03;103279.19;;;-3.43;68.65
68871;BME280;55906;52.278;6.808;2024-01-11T04:12:30;103280.09;;;-3.50;69.13
68871;BME280;55906;52.278;6.808;2024-01-11T04:14:56;103260.25;;;-3.51;68.80
68871;BME280;55906;52.278;6.808;2024-01-11T04:17:23;103282.66;;;-3.43;70.12
68871;BME280;55906;52.278;6.808;2024-01-11T04:19:50;103290.38;;;-3.43;69.89
68871;BME280;55906;52.278;6.808;2024-01-11T04:22:16;103287.63;;;-3.44;68.25
68871;BME280;55906;52.278;6.808;2024-01-11T04:24:44;103287.81;;;-3.43;69.16
68871;BME280;55906;52.278;6.808;2024-01-11T04:27:11;103281.00;;;-3.42;69.14
68871;BME280;55906;52.278;6.808;2024-01-11T04:29:38;103280.09;;;-3.43;69.69
68871;BME280;55906;52.278;6.808;2024-01-11T04:32:04;103279.72;;;-3.46;69.88
68871;BME280;55906;52.278;6.808;2024-01-11T04:34:31;103283.78;;;-3.48;69.76
68871;BME280;55906;52.278;6.808;2024-01-11T04:36:58;103282.13;;;-3.47;68.90
68871;BME280;55906;52.278;6.808;2024-01-11T04:39:24;103281.56;;;-3.45;69.27
68871;BME280;55906;52.278;6.808;2024-01-11T04:41:52;103279.72;;;-3.46;69.70
68871;BME280;55906;52.278;6.808;2024-01-11T04:44:19;103276.25;;;-3.46;70.36
68871;BME280;55906;52.278;6.808;2024-01-11T04:46:46;103268.88;;;-3.43;69.24
68871;BME280;55906;52.278;6.808;2024-01-11T04:49:12;103258.97;;;-3.40;70.32
68871;BME280;55906;52.278;6.808;2024-01-11T04:51:39;103251.63;;;-3.37;69.85
68871;BME280;55906;52.278;6.808;2024-01-11T04:54:06;103260.06;;;-3.38;69.34
68871;BME280;55906;52.278;6.808;2024-01-11T04:56:32;103237.84;;;-3.38;68.79
68871;BME280;55906;52.278;6.808;2024-01-11T04:59:00;103231.22;;;-3.43;70.16
68871;BME280;55906;52.278;6.808;2024-01-11T05:01:27;103244.44;;;-3.40;70.92
68871;BME280;55906;52.278;6.808;2024-01-11T05:03:54;103241.16;;;-3.46;69.67
68871;BME280;55906;52.278;6.808;2024-01-11T05:06:22;103242.44;;;-3.42;69.74
68871;BME280;55906;52.278;6.808;2024-01-11T05:08:50;103238.22;;;-3.49;70.46
68871;BME280;55906;52.278;6.808;2024-01-11T05:11:18;103253.28;;;-3.45;69.95
68871;BME280;55906;52.278;6.808;2024-01-11T05:13:44;103260.44;;;-3.42;70.01
68871;BME280;55906;52.278;6.808;2024-01-11T05:16:19;103253.63;;;-3.42;70.30
68871;BME280;55906;52.278;6.808;2024-01-11T05:18:46;103261.00;;;-3.45;70.09
68871;BME280;55906;52.278;6.808;2024-01-11T05:21:13;103267.41;;;-3.48;70.10
68871;BME280;55906;52.278;6.808;2024-01-11T05:23:40;103254.19;;;-3.51;70.44
68871;BME280;55906;52.278;6.808;2024-01-11T05:26:07;103236.91;;;-3.52;70.42
68871;BME280;55906;52.278;6.808;2024-01-11T05:28:34;103231.97;;;-3.58;70.81
68871;BME280;55906;52.278;6.808;2024-01-11T05:31:01;103258.59;;;-3.50;71.22
68871;BME280;55906;52.278;6.808;2024-01-11T05:33:29;103255.84;;;-3.59;69.87
68871;BME280;55906;52.278;6.808;2024-01-11T05:35:56;103289.09;;;-3.53;70.10
68871;BME280;55906;52.278;6.808;2024-01-11T05:38:23;103279.91;;;-3.59;70.64
68871;BME280;55906;52.278;6.808;2024-01-11T05:40:50;103283.94;;;-3.61;70.34
68871;BME280;55906;52.278;6.808;2024-01-11T05:43:16;103301.41;;;-3.58;70.37
68871;BME280;55906;52.278;6.808;2024-01-11T05:45:43;103279.16;;;-3.65;69.59
68871;BME280;55906;52.278;6.808;2024-01-11T05:48:10;103292.03;;;-3.58;70.17
68871;BME280;55906;52.278;6.808;2024-01-11T05:50:38;103301.22;;;-3.60;70.39
68871;BME280;55906;52.278;6.808;2024-01-11T05:53:05;103287.25;;;-3.69;70.72
68871;BME280;55906;52.278;6.808;2024-01-11T05:55:32;103299.19;;;-3.62;71.06
68871;BME280;55906;52.278;6.808;2024-01-11T05:57:58;103303.59;;;-3.68;70.87
68871;BME280;55906;52.278;6.808;2024-01-11T06:00:25;103314.97;;;-3.66;71.25
68871;BME280;55906;52.278;6.808;2024-01-11T06:02:52;103312.03;;;-3.69;72.13
68871;BME280;55906;52.278;6.808;2024-01-11T06:05:18;103329.69;;;-3.65;70.74
68871;BME280;55906;52.278;6.808;2024-01-11T06:07:47;103323.75;;;-3.85;71.91
68871;BME280;55906;52.278;6.808;2024-01-11T06:10:14;103337.91;;;-3.75;71.25
68871;BME280;55906;52.278;6.808;2024-01-11T06:12:41;103350.59;;;-3.76;72.09
68871;BME280;55906;52.278;6.808;2024-01-11T06:15:08;103351.69;;;-3.81;72.15
68871;BME280;55906;52.278;6.808;2024-01-11T06:17:35;103345.25;;;-3.78;72.44
68871;BME280;55906;52.278;6.808;2024-01-11T06:20:02;103351.13;;;-3.79;72.07
68871;BME280;55906;52.278;6.808;2024-01-11T06:22:29;103341.56;;;-3.87;73.33
68871;BME280;55906;52.278;6.808;2024-01-11T06:24:57;103344.69;;;-3.82;72.57
68871;BME280;55906;52.278;6.808;2024-01-11T06:27:25;103352.59;;;-3.81;72.67
68871;BME280;55906;52.278;6.808;2024-01-11T06:29:51;103333.25;;;-3.92;71.71
68871;BME280;55906;52.278;6.808;2024-01-11T06:32:18;103344.69;;;-3.82;72.66
68871;BME280;55906;52.278;6.808;2024-01-11T06:34:45;103341.59;;;-3.80;73.22
68871;BME280;55906;52.278;6.808;2024-01-11T06:37:12;103310.53;;;-3.81;73.01
68871;BME280;55906;52.278;6.808;2024-01-11T06:39:39;103312.41;;;-3.73;73.23
68871;BME280;55906;52.278;6.808;2024-01-11T06:42:07;103304.13;;;-3.71;72.66
68871;BME280;55906;52.278;6.808;2024-01-11T06:44:34;103299.38;;;-3.68;72.82
68871;BME280;55906;52.278;6.808;2024-01-11T06:47:01;103298.47;;;-3.61;72.53
68871;BME280;55906;52.278;6.808;2024-01-11T06:49:29;103303.59;;;-3.61;72.32
68871;BME280;55906;52.278;6.808;2024-01-11T06:51:56;103304.34;;;-3.62;72.58
68871;BME280;55906;52.278;6.808;2024-01-11T06:54:22;103298.09;;;-3.64;72.03
68871;BME280;55906;52.278;6.808;2024-01-11T06:56:49;103306.16;;;-3.61;72.68
68871;BME280;55906;52.278;6.808;2024-01-11T06:59:17;103307.28;;;-3.59;72.78
68871;BME280;55906;52.278;6.808;2024-01-11T07:01:44;103315.00;;;-3.59;72.71
68871;BME280;55906;52.278;6.808;2024-01-11T07:04:12;103310.22;;;-3.63;72.03
68871;BME280;55906;52.278;6.808;2024-01-11T07:06:39;103296.78;;;-3.68;71.91
68871;BME280;55906;52.278;6.808;2024-01-11T07:09:05;103309.66;;;-3.68;72.63
68871;BME280;55906;52.278;6.808;2024-01-11T07:11:32;103307.09;;;-3.61;72.20
68871;BME280;55906;52.278;6.808;2024-01-11T07:13:59;103302.50;;;-3.63;72.24
68871;BME280;55906;52.278;6.808;2024-01-11T07:16:27;103316.66;;;-3.60;73.17
68871;BME280;55906;52.278;6.808;2024-01-11T07:18:54;103320.13;;;-3.59;72.75
68871;BME280;55906;52.278;6.808;2024-01-11T07:21:21;103303.25;;;-3.57;71.36
68871;BME280;55906;52.278;6.808;2024-01-11T07:23:55;103308.38;;;-3.57;72.90
68871;BME280;55906;52.278;6.808;2024-01-11T07:26:22;103297.19;;;-3.58;72.86
68871;BME280;55906;52.278;6.808;2024-01-11T07:28:49;103306.91;;;-3.55;72.19
68871;BME280;55906;52.278;6.808;2024-01-11T07:31:16;103314.44;;;-3.57;72.65
68871;BME280;55906;52.278;6.808;2024-01-11T07:33:45;103317.75;;;-3.58;72.24
68871;BME280;55906;52.278;6.808;2024-01-11T07:36:12;103326.94;;;-3.52;72.94
68871;BME280;55906;52.278;6.808;2024-01-11T07:38:39;103307.63;;;-3.63;72.72
68871;BME280;55906;52.278;6.808;2024-01-11T07:41:05;103309.13;;;-3.58;73.42
68871;BME280;55906;52.278;6.808;2024-01-11T07:43:32;103315.38;;;-3.56;73.23
68871;BME280;55906;52.278;6.808;2024-01-11T07:46:01;103331.16;;;-3.53;72.52
68871;BME280;55906;52.278;6.808;2024-01-11T07:48:29;103329.31;;;-3.54;73.05
68871;BME280;55906;52.278;6.808;2024-01-11T07:50:57;103335.22;;;-3.48;72.60
68871;BME280;55906;52.278;6.808;2024-01-11T07:53:24;103333.75;;;-3.46;72.65
68871;BME280;55906;52.278;6.808;2024-01-11T07:55:51;103337.63;;;-3.42;72.31
68871;BME280;55906;52.278;6.808;2024-01-11T07:58:18;103347.53;;;-3.38;73.41
68871;BME280;55906;52.278;6.808;2024-01-11T08:00:46;103364.25;;;-3.35;72.42
68871;BME280;55906;52.278;6.808;2024-01-11T08:03:13;103371.25;;;-3.34;73.24
68871;BME280;55906;52.278;6.808;2024-01-11T08:05:40;103372.19;;;-3.19;72.08
68871;BME280;55906;52.278;6.808;2024-01-11T08:08:09;103378.25;;;-3.04;72.25
68871;BME280;55906;52.278;6.808;2024-01-11T08:10:36;103365.75;;;-3.01;71.20
68871;BME280;55906;52.278;6.808;2024-01-11T08:13:03;103370.91;;;-2.94;71.40
68871;BME280;55906;52.278;6.808;2024-01-11T08:15:29;103364.81;;;-2.73;71.53
68871;BME280;55906;52.278;6.808;2024-01-11T08:17:56;103375.66;;;-2.40;71.33
68871;BME280;55906;52.278;6.808;2024-01-11T08:20:23;103386.97;;;-2.10;69.61
68871;BME280;55906;52.278;6.808;2024-01-11T08:22:50;103374.09;;;-2.10;68.96
68871;BME280;55906;52.278;6.808;2024-01-11T08:25:18;103378.81;;;-1.99;69.67
68871;BME280;55906;52.278;6.808;2024-01-11T08:27:44;103389.16;;;-2.06;69.63
68871;BME280;55906;52.278;6.808;2024-01-11T08:30:11;103398.78;;;-2.19;70.17
68871;BME280;55906;52.278;6.808;2024-01-11T08:32:39;103391.78;;;-2.20;70.79
68871;BME280;55906;52.278;6.808;2024-01-11T08:35:08;103384.44;;;-2.24;70.83
68871;BME280;55906;52.278;6.808;2024-01-11T08:37:35;103388.28;;;-2.13;71.61
68871;BME280;55906;52.278;6.808;2024-01-11T08:40:02;103377.25;;;-2.19;72.00
68871;BME280;55906;52.278;6.808;2024-01-11T08:42:32;103376.47;;;-2.11;72.63
68871;BME280;55906;52.278;6.808;2024-01-11T08:44:59;103391.44;;;-2.23;74.29
68871;BME280;55906;52.278;6.808;2024-01-11T08:47:32;103400.25;;;-2.21;74.16
68871;BME280;55906;52.278;6.808;2024-01-11T08:49:58;103388.13;;;-2.22;75.67
68871;BME280;55906;52.278;6.808;2024-01-11T08:52:25;103372.97;;;-2.12;75.71
68871;BME280;55906;52.278;6.808;2024-01-11T08:54:52;103387.47;;;-1.98;75.89
68871;BME280;55906;52.278;6.808;2024-01-11T08:57:18;103395.72;;;-1.86;76.24
68871;BME280;55906;52.278;6.808;2024-01-11T08:59:46;103386.47;;;-1.77;75.73
68871;BME280;55906;52.278;6.808;2024-01-11T09:02:13;103392.69;;;-1.68;75.67
68871;BME280;55906;52.278;6.808;2024-01-11T09:04:40;103388.78;;;-1.65;75.96
68871;BME280;55906;52.278;6.808;2024-01-11T09:07:06;103390.78;;;-1.55;76.41
68871;BME280;55906;52.278;6.808;2024-01-11T09:09:33;103380.78;;;-1.52;77.53
68871;BME280;55906;52.278;6.808;2024-01-11T09:12:00;103374.50;;;-1.47;77.29
68871;BME280;55906;52.278;6.808;2024-01-11T09:14:28;103384.56;;;-1.34;77.65
68871;BME280;55906;52.278;6.808;2024-01-11T09:16:56;103375.72;;;-1.29;77.62
68871;BME280;55906;52.278;6.808;2024-01-11T09:19:22;103378.25;;;-1.22;76.99
68871;BME280;55906;52.278;6.808;2024-01-11T09:21:49;103383.19;;;-1.16;78.48
68871;BME280;55906;52.278;6.808;2024-01-11T09:24:16;103385.31;;;-1.05;77.54
68871;BME280;55906;52.278;6.808;2024-01-11T09:26:43;103387.16;;;-1.04;78.65
68871;BME280;55906;52.278;6.808;2024-01-11T09:29:09;103392.03;;;-0.91;77.10
68871;BME280;55906;52.278;6.808;2024-01-11T09:31:36;103393.63;;;-0.85;77.66
68871;BME280;55906;52.278;6.808;2024-01-11T09:34:05;103390.41;;;-0.75;77.40
68871;BME280;55906;52.278;6.808;2024-01-11T09:36:33;103384.09;;;-0.70;78.31
68871;BME280;55906;52.278;6.808;2024-01-11T09:39:00;103370.41;;;-0.69;78.62
68871;BME280;55906;52.278;6.808;2024-01-11T09:41:28;103382.22;;;-0.48;79.48
68871;BME280;55906;52.278;6.808;2024-01-11T09:43:57;103376.56;;;-0.37;78.17
68871;BME280;55906;52.278;6.808;2024-01-11T09:46:27;103374.81;;;-0.29;76.73
68871;BME280;55906;52.278;6.808;2024-01-11T09:48:55;103377.56;;;-0.28;78.18
68871;BME280;55906;52.278;6.808;2024-01-11T09:51:25;103385.75;;;-0.16;78.69
68871;BME280;55906;52.278;6.808;2024-01-11T09:53:55;103371.88;;;-0.17;79.50
68871;BME280;55906;52.278;6.808;2024-01-11T09:56:22;103386.31;;;-0.03;78.74
68871;BME280;55906;52.278;6.808;2024-01-11T09:58:50;103395.28;;;0.08;78.77
68871;BME280;55906;52.278;6.808;2024-01-11T10:01:17;103400.69;;;0.18;79.50
68871;BME280;55906;52.278;6.808;2024-01-11T10:03:44;103403.28;;;0.18;78.66
68871;BME280;55906;52.278;6.808;2024-01-11T10:06:12;103387.91;;;0.19;79.00
68871;BME280;55906;52.278;6.808;2024-01-11T10:08:42;103391.34;;;0.27;79.32
68871;BME280;55906;52.278;6.808;2024-01-11T10:11:09;103400.84;;;0.35;79.00
68871;BME280;55906;52.278;6.808;2024-01-11T10:13:36;103407.00;;;0.44;79.42
68871;BME280;55906;52.278;6.808;2024-01-11T10:16:07;103402.06;;;0.54;78.54
68871;BME280;55906;52.278;6.808;2024-01-11T10:18:34;103408.16;;;0.55;78.69
68871;BME280;55906;52.278;6.808;2024-01-11T10:21:01;103401.41;;;0.48;80.51
68871;BME280;55906;52.278;6.808;2024-01-11T10:23:28;103410.25;;;0.50;80.22
68871;BME280;55906;52.278;6.808;2024-01-11T10:25:57;103410.09;;;0.49;81.19
68871;BME280;55906;52.278;6.808;2024-01-11T10:28:25;103416.00;;;0.48;81.69
68871;BME280;55906;52.278;6.808;2024-01-11T10:30:51;103408.75;;;0.52;80.62
68871;BME280;55906;52.278;6.808;2024-01-11T10:33:19;103410.25;;;0.50;80.79
68871;BME280;55906;52.278;6.808;2024-01-11T10:35:46;103404.66;;;0.54;80.92
68871;BME280;55906;52.278;6.808;2024-01-11T10:38:14;103401.63;;;0.58;80.97
68871;BME280;55906;52.278;6.808;2024-01-11T10:40:41;103418.09;;;0.59;81.94
68871;BME280;55906;52.278;6.808;2024-01-11T10:43:10;103405.19;;;0.68;81.63
68871;BME280;55906;52.278;6.808;2024-01-11T10:45:38;103402.81;;;0.78;81.01
68871;BME280;55906;52.278;6.808;2024-01-11T10:48:11;103397.22;;;0.82;81.11
68871;BME280;55906;52.278;6.808;2024-01-11T10:50:42;103399.22;;;0.84;81.41
68871;BME280;55906;52.278;6.808;2024-01-11T10:53:15;103400.34;;;0.95;80.33
68871;BME280;55906;52.278;6.808;2024-01-11T10:55:46;103396.06;;;0.95;80.84
68871;BME280;55906;52.278;6.808;2024-01-11T10:58:15;103400.38;;;1.04;79.55
68871;BME280;55906;52.278;6.808;2024-01-11T11:00:42;103386.50;;;1.03;80.67
68871;BME280;55906;52.278;6.808;2024-01-11T11:03:11;103391.88;;;1.13;79.98
68871;BME280;55906;52.278;6.808;2024-01-11T11:05:38;103388.41;;;1.21;79.56
68871;BME280;55906;52.278;6.808;2024-01-11T11:08:07;103382.03;;;1.26;79.73
68871;BME280;55906;52.278;6.808;2024-01-11T11:10:36;103382.19;;;1.28;80.58
68871;BME280;55906;52.278;6.808;2024-01-11T11:13:05;103382.72;;;1.33;80.82
68871;BME280;55906;52.278;6.808;2024-01-11T11:15:35;103384.25;;;1.39;80.58
68871;BME280;55906;52.278;6.808;2024-01-11T11:18:03;103379.53;;;1.44;79.62
68871;BME280;55906;52.278;6.808;2024-01-11T11:20:31;103372.38;;;1.50;80.48
68871;BME280;55906;52.278;6.808;2024-01-11T11:23:04;103370.41;;;1.56;80.47
68871;BME280;55906;52.278;6.808;2024-01-11T11:25:31;103374.41;;;1.61;79.75
68871;BME280;55906;52.278;6.808;2024-01-11T11:27:58;103377.31;;;1.64;79.95
68871;BME280;55906;52.278;6.808;2024-01-11T11:30:26;103377.31;;;1.64;80.04
68871;BME280;55906;52.278;6.808;2024-01-11T11:32:55;103387.38;;;1.70;79.76
68871;BME280;55906;52.278;6.808;2024-01-11T11:35:23;103378.22;;;1.65;80.26
68871;BME280;55906;52.278;6.808;2024-01-11T11:37:54;103376.09;;;1.69;80.56
68871;BME280;55906;52.278;6.808;2024-01-11T11:40:21;103377.94;;;1.70;81.01
68871;BME280;55906;52.278;6.808;2024-01-11T11:42:48;103368.31;;;1.69;80.38
68871;BME280;55906;52.278;6.808;2024-01-11T11:45:24;103367.56;;;1.79;80.92
68871;BME280;55906;52.278;6.808;2024-01-11T11:47:52;103368.78;;;1.82;79.69
68871;BME280;55906;52.278;6.808;2024-01-11T11:50:22;103376.44;;;1.81;80.04
68871;BME280;55906;52.278;6.808;2024-01-11T11:52:53;103372.47;;;1.84;80.08
68871;BME280;55906;52.278;6.808;2024-01-11T11:55:22;103381.16;;;1.85;80.95
68871;BME280;55906;52.278;6.808;2024-01-11T11:57:50;103384.97;;;1.88;81.05
68871;BME280;55906;52.278;6.808;2024-01-11T12:00:17;103380.88;;;1.90;81.36
68871;BME280;55906;52.278;6.808;2024-01-11T12:02:44;103367.28;;;1.93;80.41
68871;BME280;55906;52.278;6.808;2024-01-11T12:05:13;103376.59;;;2.00;81.28
68871;BME280;55906;52.278;6.808;2024-01-11T12:07:41;103357.97;;;2.04;79.99
68871;BME280;55906;52.278;6.808;2024-01-11T12:10:08;103360.56;;;2.04;80.16
68871;BME280;55906;52.278;6.808;2024-01-11T12:12:35;103350.03;;;2.11;80.34
68871;BME280;55906;52.278;6.808;2024-01-11T12:15:03;103348.66;;;2.14;81.06
68871;BME280;55906;52.278;6.808;2024-01-11T12:17:30;103327.59;;;2.20;80.15
68871;BME280;55906;52.278;6.808;2024-01-11T12:19:57;103340.09;;;2.33;79.98
68871;BME280;55906;52.278;6.808;2024-01-11T12:22:24;103343.16;;;2.37;79.03
68871;BME280;55906;52.278;6.808;2024-01-11T12:24:52;103340.53;;;2.37;79.71
68871;BME280;55906;52.278;6.808;2024-01-11T12:27:19;103336.28;;;2.38;79.99
68871;BME280;55906;52.278;6.808;2024-01-11T12:29:46;103308.78;;;2.31;80.46
68871;BME280;55906;52.278;6.808;2024-01-11T12:32:14;103310.78;;;2.25;82.33
68871;BME280;55906;52.278;6.808;2024-01-11T12:34:42;103315.97;;;2.25;82.84
68871;BME280;55906;52.278;6.808;2024-01-11T12:37:10;103308.66;;;2.21;83.53
68871;BME280;55906;52.278;6.808;2024-01-11T12:39:37;103299.75;;;2.36;82.33
68871;BME280;55906;52.278;6.808;2024-01-11T12:42:06;103288.31;;;2.34;82.20
68871;BME280;55906;52.278;6.808;2024-01-11T12:44:34;103299.16;;;2.30;82.60
68871;BME280;55906;52.278;6.808;2024-01-11T12:47:03;103286.00;;;2.37;81.95
68871;BME280;55906;52.278;6.808;2024-01-11T12:49:31;103286.47;;;2.33;83.65
68871;BME280;55906;52.278;6.808;2024-01-11T12:51:58;103282.38;;;2.27;83.29
68871;BME280;55906;52.278;6.808;2024-01-11T12:54:25;103270.44;;;2.29;83.18